createdAt,value
2018-04-13T00:01:31.640Z,71.90
2018-04-13T00:03:59.064Z,72.86
2018-04-13T00:06:26.471Z,73.99
2018-04-13T00:08:53.888Z,75.66
2018-04-13T00:11:21.298Z,75.15
2018-04-13T00:13:48.852Z,75.54
2018-04-13T00:16:16.256Z,75.48
2018-04-13T00:18:43.664Z,76.39
2018-04-13T00:21:11.075Z,77.05
2018-04-13T00:23:38.480Z,77.57
2018-04-13T00:26:05.901Z,77.74
2018-04-13T00:28:33.329Z,76.62
2018-04-13T00:31:00.852Z,75.61
2018-04-13T00:33:28.252Z,75.79
2018-04-13T00:35:55.660Z,74.90
2018-04-13T00:38:23.084Z,74.64
2018-04-13T00:40:50.501Z,73.86
2018-04-13T00:43:17.941Z,76.17
2018-04-13T00:45:45.328Z,77.02
2018-04-13T00:48:12.737Z,75.86
2018-04-13T00:50:40.164Z,77.66
2018-04-13T00:53:19.317Z,78.15
2018-04-13T00:55:46.869Z,79.06
2018-04-13T00:58:14.276Z,79.62
2018-04-13T01:00:41.676Z,80.23
2018-04-13T01:03:09.079Z,75.91
2018-04-13T01:05:36.475Z,75.72
2018-04-13T01:08:03.884Z,77.92
2018-04-13T01:10:31.280Z,78.04
2018-04-13T01:12:58.694Z,78.68
2018-04-13T01:15:26.088Z,79.02
2018-04-13T01:17:53.500Z,78.01
2018-04-13T01:20:20.911Z,77.14
2018-04-13T01:22:48.305Z,77.00
2018-04-13T01:25:15.712Z,77.92
2018-04-13T01:27:43.136Z,76.91
2018-04-13T01:30:10.696Z,75.87
2018-04-13T01:32:38.098Z,74.47
2018-04-13T01:35:05.494Z,74.00
2018-04-13T01:37:32.912Z,75.14
2018-04-13T01:40:00.319Z,76.50
2018-04-13T01:42:27.724Z,76.98
2018-04-13T01:44:55.136Z,76.91
2018-04-13T01:47:22.563Z,77.57
2018-04-13T01:49:49.980Z,77.05
2018-04-13T01:52:17.386Z,78.00
2018-04-13T01:54:44.800Z,78.10
2018-04-13T01:57:12.213Z,77.76
2018-04-13T01:59:39.620Z,78.54
2018-04-13T02:02:07.023Z,78.18
2018-04-13T02:04:34.416Z,78.65
2018-04-13T02:07:01.821Z,79.25
2018-04-13T02:09:29.240Z,79.15
2018-04-13T02:11:56.647Z,78.81
2018-04-13T02:14:24.064Z,78.51
2018-04-13T02:16:51.486Z,79.38
2018-04-13T02:19:18.903Z,79.15
2018-04-13T02:21:46.322Z,79.22
2018-04-13T02:24:13.731Z,79.06
2018-04-13T02:26:41.139Z,79.62
2018-04-13T02:29:08.535Z,79.41
2018-04-13T02:31:35.952Z,79.61
2018-04-13T02:34:03.364Z,79.58
2018-04-13T02:36:30.772Z,79.63
2018-04-13T02:38:58.163Z,79.71
2018-04-13T02:41:25.573Z,79.94
2018-04-13T02:43:52.971Z,79.99
2018-04-13T02:46:20.387Z,80.11
2018-04-13T02:48:47.876Z,80.41
2018-04-13T02:51:15.274Z,80.14
2018-04-13T02:53:42.684Z,80.66
2018-04-13T02:56:10.085Z,79.99
2018-04-13T02:58:37.528Z,79.86
2018-04-13T03:01:04.935Z,80.13
2018-04-13T03:03:32.327Z,80.24
2018-04-13T03:05:59.758Z,80.38
2018-04-13T03:08:27.144Z,80.31
2018-04-13T03:10:54.564Z,80.77
2018-04-13T03:13:21.959Z,80.93
2018-04-13T03:15:49.377Z,80.74
2018-04-13T03:18:16.772Z,80.34
2018-04-13T03:20:44.192Z,80.44
2018-04-13T03:23:11.589Z,80.59
2018-04-13T03:25:38.990Z,80.62
2018-04-13T03:28:06.388Z,80.79
2018-04-13T03:30:33.820Z,79.99
2018-04-13T03:33:01.216Z,80.11
2018-04-13T03:35:28.632Z,80.20
2018-04-13T03:37:56.063Z,80.02
2018-04-13T03:40:23.476Z,79.84
2018-04-13T03:42:50.904Z,80.12
2018-04-13T03:45:18.303Z,80.03
2018-04-13T03:47:45.709Z,80.46
2018-04-13T03:50:13.136Z,80.01
2018-04-13T03:52:40.539Z,80.07
2018-04-13T03:55:07.960Z,79.83
2018-04-13T03:57:35.363Z,79.51
2018-04-13T04:00:02.945Z,79.56
2018-04-13T04:02:35.223Z,79.50
2018-04-13T04:05:02.632Z,79.23
2018-04-13T04:07:30.044Z,79.03
2018-04-13T04:09:57.448Z,79.38
2018-04-13T04:12:24.848Z,79.35
2018-04-13T04:14:52.260Z,80.78
2018-04-13T04:17:19.648Z,80.46
2018-04-13T04:19:59.795Z,80.86
2018-04-13T04:22:38.837Z,80.92
2018-04-13T04:25:17.976Z,80.62
2018-04-13T04:27:45.390Z,80.67
2018-04-13T04:30:12.798Z,80.85
2018-04-13T04:32:40.217Z,81.14
2018-04-13T04:35:07.624Z,81.15
2018-04-13T04:37:35.031Z,81.64
2018-04-13T04:40:02.442Z,81.37
2018-04-13T04:42:29.867Z,81.29
2018-04-13T04:44:57.252Z,81.10
2018-04-13T04:47:25.014Z,81.44
2018-04-13T04:49:52.419Z,81.43
2018-04-13T04:52:19.824Z,81.69
2018-04-13T04:54:47.252Z,80.83
2018-04-13T04:57:14.646Z,80.73
2018-04-13T04:59:42.086Z,80.71
2018-04-13T05:02:09.452Z,80.48
2018-04-13T05:04:36.859Z,80.53
2018-04-13T05:07:04.258Z,80.32
2018-04-13T05:09:31.664Z,80.43
2018-04-13T05:11:59.063Z,80.27
2018-04-13T05:14:26.476Z,80.44
2018-04-13T05:16:53.869Z,80.22
2018-04-13T05:19:21.284Z,79.95
2018-04-13T05:21:48.671Z,80.25
2018-04-13T05:24:16.084Z,80.45
2018-04-13T05:26:43.492Z,80.54
2018-04-13T05:29:10.974Z,80.97
2018-04-13T05:31:38.352Z,80.65
2018-04-13T05:34:05.795Z,80.40
2018-04-13T05:36:33.192Z,79.88
2018-04-13T05:39:00.608Z,79.72
2018-04-13T05:41:28.011Z,78.67
2018-04-13T05:43:55.432Z,77.83
2018-04-13T05:46:22.847Z,78.20
2018-04-13T05:48:50.269Z,78.40
2018-04-13T05:51:17.681Z,79.02
2018-04-13T05:53:45.100Z,78.38
2018-04-13T05:56:12.499Z,78.42
2018-04-13T05:58:39.921Z,77.80
2018-04-13T06:01:07.336Z,77.79
2018-04-13T06:03:34.768Z,77.32
2018-04-13T06:06:02.204Z,77.57
2018-04-13T06:08:29.606Z,77.71
2018-04-13T06:10:57.011Z,77.41
2018-04-13T06:13:24.451Z,77.84
2018-04-13T06:15:51.855Z,77.93
2018-04-13T06:18:19.280Z,77.85
2018-04-13T06:20:46.692Z,78.00
2018-04-13T06:23:14.104Z,78.22
2018-04-13T06:25:41.533Z,77.82
2018-04-13T06:28:08.960Z,77.41
2018-04-13T06:30:36.364Z,77.14
2018-04-13T06:33:03.789Z,77.06
2018-04-13T06:35:31.202Z,76.89
2018-04-13T06:37:58.620Z,76.72
2018-04-13T06:40:26.028Z,76.26
2018-04-13T06:42:53.448Z,76.28
2018-04-13T06:45:20.880Z,76.07
2018-04-13T06:47:48.285Z,75.87
2018-04-13T06:50:15.708Z,75.11
2018-04-13T06:52:43.123Z,74.97
2018-04-13T06:55:10.577Z,75.15
2018-04-13T06:57:37.980Z,74.97
2018-04-13T07:00:05.424Z,74.56
2018-04-13T07:02:32.849Z,74.53
2018-04-13T07:05:00.252Z,74.71
2018-04-13T07:07:27.699Z,74.71
2018-04-13T07:09:55.108Z,74.65
2018-04-13T07:12:22.516Z,74.61
2018-04-13T07:14:49.937Z,74.07
2018-04-13T07:17:17.362Z,73.80
2018-04-13T07:19:44.778Z,73.69
2018-04-13T07:22:12.213Z,72.56
2018-04-13T07:24:39.621Z,72.82
2018-04-13T07:27:07.045Z,72.79
2018-04-13T07:29:34.454Z,72.12
2018-04-13T07:32:01.892Z,72.68
2018-04-13T07:34:29.318Z,72.41
2018-04-13T07:36:57.024Z,72.47
2018-04-13T07:39:24.528Z,72.49
2018-04-13T07:41:51.918Z,72.68
2018-04-13T07:44:19.331Z,73.19
2018-04-13T07:46:46.747Z,72.62
2018-04-13T07:49:14.184Z,73.49
2018-04-13T07:51:41.606Z,73.48
2018-04-13T07:54:09.032Z,73.60
2018-04-13T07:56:36.455Z,73.82
2018-04-13T07:59:03.889Z,74.24
2018-04-13T08:01:31.301Z,74.04
2018-04-13T08:03:58.733Z,74.57
2018-04-13T08:06:26.160Z,74.23
2018-04-13T08:08:53.579Z,73.98
2018-04-13T08:11:20.998Z,74.16
2018-04-13T08:13:48.632Z,73.91
2018-04-13T08:16:16.039Z,73.77
2018-04-13T08:18:43.460Z,73.74
2018-04-13T08:21:10.871Z,73.46
2018-04-13T08:23:38.300Z,73.65
2018-04-13T08:26:05.736Z,73.61
2018-04-13T08:28:33.154Z,73.68
2018-04-13T08:31:00.565Z,73.69
2018-04-13T08:33:28.011Z,73.73
2018-04-13T08:35:55.413Z,74.02
2018-04-13T08:38:22.846Z,74.09
2018-04-13T08:40:50.528Z,73.70
2018-04-13T08:43:17.986Z,74.68
2018-04-13T08:45:45.432Z,74.10
2018-04-13T08:48:12.796Z,74.28
2018-04-13T08:50:40.234Z,73.93
2018-04-13T08:53:07.644Z,73.95
2018-04-13T08:55:35.076Z,74.00
2018-04-13T08:58:02.521Z,73.82
2018-04-13T09:00:29.935Z,73.71
2018-04-13T09:02:57.356Z,73.87
2018-04-13T09:05:24.768Z,74.01
2018-04-13T09:07:52.228Z,72.98
2018-04-13T09:10:19.652Z,73.11
2018-04-13T09:12:47.089Z,72.41
2018-04-13T09:15:14.497Z,72.53
2018-04-13T09:17:41.917Z,72.43
2018-04-13T09:20:09.337Z,72.43
2018-04-13T09:22:36.747Z,72.40
2018-04-13T09:25:04.152Z,72.68
2018-04-13T09:27:31.875Z,72.51
2018-04-13T09:29:59.280Z,72.35
2018-04-13T09:32:26.694Z,72.02
2018-04-13T09:34:54.118Z,71.56
2018-04-13T09:37:21.540Z,71.78
2018-04-13T09:39:48.945Z,71.45
2018-04-13T09:42:16.363Z,71.37
2018-04-13T09:44:43.774Z,71.19
2018-04-13T09:47:11.187Z,71.02
2018-04-13T09:49:38.598Z,71.52
2018-04-13T09:52:06.010Z,70.22
2018-04-13T09:54:33.431Z,69.93
2018-04-13T09:57:00.848Z,68.77
2018-04-13T09:59:28.955Z,69.29
2018-04-13T10:01:56.369Z,69.55
2018-04-13T10:04:23.796Z,68.36
2018-04-13T10:06:51.265Z,69.23
2018-04-13T10:09:18.697Z,69.09
2018-04-13T10:11:46.137Z,69.08
2018-04-13T10:14:13.560Z,69.14
2018-04-13T10:16:40.977Z,69.18
2018-04-13T10:19:08.398Z,69.42
2018-04-13T10:21:35.819Z,69.43
2018-04-13T10:24:03.291Z,69.67
2018-04-13T10:26:30.719Z,69.71
2018-04-13T10:28:58.168Z,70.01
2018-04-13T10:31:25.596Z,69.42
2018-04-13T10:33:53.052Z,70.04
2018-04-13T10:36:20.503Z,70.34
2018-04-13T10:38:47.934Z,69.91
2018-04-13T10:41:15.343Z,70.16
2018-04-13T10:43:42.803Z,70.64
2018-04-13T10:46:10.232Z,70.30
2018-04-13T10:48:37.669Z,70.40
2018-04-13T10:51:05.098Z,70.77
2018-04-13T10:53:32.528Z,70.42
2018-04-13T10:56:01.401Z,70.50
2018-04-13T10:58:28.851Z,70.46
2018-04-13T11:00:56.282Z,70.35
2018-04-13T11:03:23.724Z,70.44
2018-04-13T11:05:51.143Z,70.24
2018-04-13T11:08:18.557Z,70.66
2018-04-13T11:10:45.983Z,70.49
2018-04-13T11:13:13.387Z,70.83
2018-04-13T11:15:40.840Z,71.12
2018-04-13T11:18:08.249Z,71.31
2018-04-13T11:20:35.663Z,71.15
2018-04-13T11:23:03.072Z,71.73
2018-04-13T11:25:30.532Z,72.30
2018-04-13T11:27:57.941Z,71.92
2018-04-13T11:30:25.360Z,71.55
2018-04-13T11:32:52.770Z,71.35
2018-04-13T11:35:20.197Z,71.84
2018-04-13T11:37:47.599Z,71.93
2018-04-13T11:40:15.057Z,72.17
2018-04-13T11:42:43.381Z,73.04
2018-04-13T11:45:10.857Z,73.55
2018-04-13T11:47:38.261Z,73.14
2018-04-13T11:50:05.691Z,73.93
2018-04-13T11:52:33.104Z,74.42
2018-04-13T11:55:00.511Z,76.92
2018-04-13T11:57:27.927Z,77.13
2018-04-13T11:59:55.357Z,77.44
2018-04-13T12:02:22.759Z,77.89
2018-04-13T12:04:50.207Z,79.38
2018-04-13T12:07:19.880Z,80.10
2018-04-13T12:09:47.293Z,81.36
2018-04-13T12:12:14.715Z,81.64
2018-04-13T12:14:42.149Z,81.81
2018-04-13T12:17:09.565Z,82.46
2018-04-13T12:19:36.990Z,81.28
2018-04-13T12:22:04.404Z,81.80
2018-04-13T12:24:31.828Z,83.80
2018-04-13T12:26:59.255Z,84.21
2018-04-13T12:29:26.700Z,84.19
2018-04-13T12:31:54.115Z,85.06
2018-04-13T12:34:21.581Z,85.89
2018-04-13T12:36:49.056Z,85.49
2018-04-13T12:39:16.483Z,86.98
2018-04-13T12:41:43.912Z,89.39
2018-04-13T12:44:11.376Z,90.21
2018-04-13T12:46:38.793Z,88.73
2018-04-13T12:49:06.209Z,89.39
2018-04-13T12:51:33.623Z,89.29
2018-04-13T12:54:01.137Z,90.37
2018-04-13T12:56:28.556Z,90.29
2018-04-13T12:58:56.013Z,89.58
2018-04-13T13:01:23.448Z,90.82
2018-04-13T13:03:51.308Z,88.81
2018-04-13T13:06:18.727Z,90.12
2018-04-13T13:08:46.154Z,89.76
2018-04-13T13:11:13.606Z,89.42
2018-04-13T13:13:41.012Z,87.65
2018-04-13T13:16:08.433Z,90.73
2018-04-13T13:18:35.906Z,91.17
2018-04-13T13:21:03.332Z,91.28
2018-04-13T13:23:30.743Z,91.59
2018-04-13T13:25:58.195Z,90.83
2018-04-13T13:28:25.614Z,91.14
2018-04-13T13:30:53.040Z,91.61
2018-04-13T13:33:20.459Z,91.15
2018-04-13T13:35:47.881Z,89.31
2018-04-13T13:38:15.293Z,90.35
2018-04-13T13:40:42.739Z,89.61
2018-04-13T13:43:10.155Z,89.46
2018-04-13T13:45:37.571Z,89.41
2018-04-13T13:48:04.988Z,90.05
2018-04-13T13:50:32.685Z,90.65
2018-04-13T13:53:00.095Z,88.12
2018-04-13T13:55:27.500Z,87.81
2018-04-13T13:57:54.919Z,89.20
2018-04-13T14:00:22.351Z,88.38
2018-04-13T14:02:49.755Z,87.75
2018-04-13T14:05:17.180Z,86.77
2018-04-13T14:07:44.579Z,87.62
2018-04-13T14:10:12.016Z,88.75
2018-04-13T14:12:39.431Z,88.74
2018-04-13T14:15:06.851Z,88.50
2018-04-13T14:17:34.283Z,87.72
2018-04-13T14:20:01.752Z,86.49
2018-04-13T14:22:29.185Z,86.74
2018-04-13T14:24:56.612Z,89.13
2018-04-13T14:27:24.021Z,91.00
2018-04-13T14:29:51.471Z,90.66
2018-04-13T14:32:18.880Z,89.26
2018-04-13T14:34:46.317Z,90.06
2018-04-13T14:37:13.723Z,90.76
2018-04-13T14:39:41.153Z,91.66
2018-04-13T14:42:08.563Z,91.09
2018-04-13T14:44:35.995Z,91.76
2018-04-13T14:47:03.399Z,90.62
2018-04-13T14:49:30.823Z,91.96
2018-04-13T14:51:58.252Z,91.78
2018-04-13T14:54:25.670Z,91.84
2018-04-13T14:56:53.132Z,91.35
2018-04-13T14:59:20.580Z,92.08
2018-04-13T15:01:48.014Z,90.79
2018-04-13T15:04:15.419Z,91.05
2018-04-13T15:06:42.844Z,91.90
2018-04-13T15:09:10.259Z,90.91
2018-04-13T15:11:37.681Z,91.19
2018-04-13T15:14:05.091Z,89.77
2018-04-13T15:16:32.516Z,89.04
2018-04-13T15:18:59.938Z,89.11
2018-04-13T15:21:27.373Z,88.95
2018-04-13T15:23:54.830Z,87.75
2018-04-13T15:26:22.235Z,88.92
2018-04-13T15:28:49.660Z,86.94
2018-04-13T15:31:17.076Z,87.15
2018-04-13T15:33:44.509Z,89.63
2018-04-13T15:36:11.927Z,85.52
2018-04-13T15:38:39.343Z,90.11
2018-04-13T15:41:06.759Z,88.12
2018-04-13T15:43:34.180Z,86.61
2018-04-13T15:46:01.593Z,88.50
2018-04-13T15:48:29.008Z,87.23
2018-04-13T15:50:56.469Z,89.31
2018-04-13T15:53:23.904Z,87.67
2018-04-13T15:55:51.315Z,89.00
2018-04-13T15:58:18.740Z,88.52
2018-04-13T16:00:46.140Z,88.72
2018-04-13T16:03:13.560Z,87.06
2018-04-13T16:05:40.988Z,89.76
2018-04-13T16:08:08.421Z,88.28
2018-04-13T16:10:35.819Z,89.72
2018-04-13T16:13:03.421Z,90.07
2018-04-13T16:15:30.845Z,87.83
2018-04-13T16:17:58.248Z,88.97
2018-04-13T16:20:25.683Z,90.82
2018-04-13T16:22:53.104Z,91.52
2018-04-13T16:25:20.540Z,92.08
2018-04-13T16:27:47.951Z,91.28
2018-04-13T16:30:15.396Z,91.55
2018-04-13T16:32:42.826Z,92.22
2018-04-13T16:35:10.260Z,92.12
2018-04-13T16:37:37.680Z,92.05
2018-04-13T16:40:05.119Z,91.35
2018-04-13T16:42:32.536Z,90.98
2018-04-13T16:44:59.960Z,91.17
2018-04-13T16:47:27.391Z,91.41
2018-04-13T16:49:54.836Z,91.43
2018-04-13T16:52:22.265Z,92.10
2018-04-13T16:54:49.691Z,91.92
2018-04-13T16:57:17.116Z,91.12
2018-04-13T16:59:44.540Z,91.42
2018-04-13T17:02:11.952Z,91.69
2018-04-13T17:04:39.384Z,91.79
2018-04-13T17:07:06.833Z,91.64
2018-04-13T17:09:34.279Z,91.74
2018-04-13T17:12:01.689Z,91.07
2018-04-13T17:14:29.116Z,91.87
2018-04-13T17:16:56.552Z,90.73
2018-04-13T17:19:23.975Z,91.23
2018-04-13T17:21:51.396Z,91.10
2018-04-13T17:24:18.855Z,91.11
2018-04-13T17:26:46.316Z,90.56
2018-04-13T17:29:13.735Z,91.44
2018-04-13T17:31:41.159Z,90.51
2018-04-13T17:34:08.573Z,90.96
2018-04-13T17:36:36.000Z,90.95
2018-04-13T17:39:03.408Z,91.13
2018-04-13T17:41:30.835Z,90.66
2018-04-13T17:43:58.244Z,89.64
2018-04-13T17:46:25.681Z,90.14
2018-04-13T17:48:53.106Z,90.66
2018-04-13T17:51:20.513Z,90.25
2018-04-13T17:53:47.930Z,90.07
2018-04-13T17:56:15.348Z,89.17
2018-04-13T17:58:42.775Z,89.52
2018-04-13T18:01:10.200Z,89.15
2018-04-13T18:03:37.644Z,88.44
2018-04-13T18:06:05.076Z,88.39
2018-04-13T18:08:32.488Z,87.45
2018-04-13T18:10:59.891Z,87.99
2018-04-13T18:13:27.337Z,89.33
2018-04-13T18:15:54.744Z,89.43
2018-04-13T18:18:22.164Z,88.53
2018-04-13T18:20:49.592Z,88.68
2018-04-13T18:23:17.016Z,88.65
2018-04-13T18:25:44.465Z,88.92
2018-04-13T18:28:11.880Z,88.22
2018-04-13T18:30:39.328Z,88.14
2018-04-13T18:33:06.745Z,88.31
2018-04-13T18:35:34.177Z,86.93
2018-04-13T18:38:01.584Z,89.59
2018-04-13T18:40:29.017Z,87.08
2018-04-13T18:42:56.419Z,89.01
2018-04-13T18:45:23.858Z,86.49
2018-04-13T18:47:51.305Z,89.15
2018-04-13T18:50:18.731Z,88.66
2018-04-13T18:52:46.154Z,87.98
2018-04-13T18:55:13.571Z,89.13
2018-04-13T18:57:41.010Z,88.82
2018-04-13T19:00:08.412Z,87.26
2018-04-13T19:02:35.837Z,88.83
2018-04-13T19:05:03.248Z,87.32
2018-04-13T19:07:30.671Z,88.69
2018-04-13T19:09:58.095Z,88.89
2018-04-13T19:12:25.523Z,88.48
2018-04-13T19:14:52.935Z,88.74
2018-04-13T19:17:20.489Z,88.90
2018-04-13T19:19:47.927Z,89.12
2018-04-13T19:22:15.401Z,87.49
2018-04-13T19:24:42.816Z,87.43
2018-04-13T19:27:10.236Z,87.79
2018-04-13T19:29:37.654Z,87.06
2018-04-13T19:32:05.076Z,88.30
2018-04-13T19:34:32.484Z,86.98
2018-04-13T19:36:59.900Z,88.18
2018-04-13T19:39:27.312Z,88.78
2018-04-13T19:41:54.727Z,87.66
2018-04-13T19:44:22.149Z,87.97
2018-04-13T19:46:49.572Z,87.59
2018-04-13T19:49:16.971Z,86.85
2018-04-13T19:51:44.391Z,86.46
2018-04-13T19:54:11.800Z,87.22
2018-04-13T19:56:39.223Z,85.76
2018-04-13T19:59:06.644Z,88.16
2018-04-13T20:01:34.065Z,87.20
2018-04-13T20:04:01.558Z,85.62
2018-04-13T20:06:29.014Z,85.49
2018-04-13T20:08:56.421Z,88.27
2018-04-13T20:11:23.845Z,86.03
2018-04-13T20:13:51.267Z,86.90
2018-04-13T20:16:21.483Z,85.97
2018-04-13T20:18:48.900Z,84.48
2018-04-13T20:21:16.326Z,84.37
2018-04-13T20:23:43.757Z,85.33
2018-04-13T20:26:11.344Z,85.91
2018-04-13T20:28:38.750Z,84.81
2018-04-13T20:31:06.179Z,87.40
2018-04-13T20:33:33.611Z,86.93
2018-04-13T20:36:01.101Z,86.31
2018-04-13T20:38:28.599Z,85.73
2018-04-13T20:40:55.957Z,84.90
2018-04-13T20:43:23.385Z,83.94
2018-04-13T20:45:50.797Z,81.90
2018-04-13T20:48:18.260Z,82.27
2018-04-13T20:50:45.668Z,81.13
2018-04-13T20:53:13.116Z,80.03
2018-04-13T20:55:40.529Z,79.79
2018-04-13T20:58:08.016Z,78.92
2018-04-13T21:00:35.424Z,78.54
2018-04-13T21:03:02.864Z,78.36
2018-04-13T21:05:30.269Z,78.09
2018-04-13T21:07:57.700Z,77.72
2018-04-13T21:10:25.117Z,77.91
2018-04-13T21:12:52.541Z,77.89
2018-04-13T21:15:19.956Z,77.77
2018-04-13T21:17:47.396Z,78.02
2018-04-13T21:20:14.813Z,78.00
2018-04-13T21:22:42.255Z,77.59
2018-04-13T21:25:09.662Z,77.94
2018-04-13T21:27:37.108Z,77.47
2018-04-13T21:30:04.526Z,77.76
2018-04-13T21:32:32.016Z,78.00
2018-04-13T21:34:59.475Z,77.99
2018-04-13T21:37:26.920Z,77.91
2018-04-13T21:39:54.349Z,77.85
2018-04-13T21:42:21.801Z,78.01
2018-04-13T21:44:49.276Z,77.95
2018-04-13T21:47:16.761Z,77.90
2018-04-13T21:49:44.193Z,77.85
2018-04-13T21:52:12.044Z,78.06
2018-04-13T21:54:39.473Z,78.09
2018-04-13T21:57:06.924Z,78.24
2018-04-13T21:59:34.352Z,78.27
2018-04-13T22:02:01.769Z,78.53
2018-04-13T22:04:29.204Z,78.35
2018-04-13T22:06:56.636Z,78.50
2018-04-13T22:09:24.076Z,78.55
2018-04-13T22:11:51.496Z,78.62
2018-04-13T22:14:31.119Z,78.49
2018-04-13T22:16:58.537Z,78.52
2018-04-13T22:19:25.968Z,78.66
2018-04-13T22:21:53.388Z,78.34
2018-04-13T22:24:20.801Z,78.73
2018-04-13T22:26:48.216Z,78.64
2018-04-13T22:29:15.649Z,78.71
2018-04-13T22:31:43.070Z,78.60
2018-04-13T22:34:10.489Z,78.59
2018-04-13T22:36:37.908Z,78.07
2018-04-13T22:39:06.152Z,77.95
2018-04-13T22:41:33.634Z,77.87
2018-04-13T22:44:01.271Z,78.00
2018-04-13T22:46:28.730Z,77.97
2018-04-13T22:48:56.308Z,78.09
2018-04-13T22:51:23.736Z,76.95
2018-04-13T22:53:51.145Z,77.09
2018-04-13T22:56:18.579Z,76.63
2018-04-13T22:58:45.988Z,76.71
2018-04-13T23:01:13.414Z,76.63
2018-04-13T23:03:40.832Z,77.00
2018-04-13T23:06:08.260Z,76.97
2018-04-13T23:08:35.671Z,78.31
2018-04-13T23:11:03.114Z,78.31
2018-04-13T23:13:30.561Z,78.59
2018-04-13T23:15:58.018Z,78.97
2018-04-13T23:18:25.457Z,79.35
2018-04-13T23:20:52.884Z,79.35
2018-04-13T23:23:20.321Z,79.79
2018-04-13T23:25:47.752Z,78.97
2018-04-13T23:28:15.176Z,79.80
2018-04-13T23:30:42.608Z,79.52
2018-04-13T23:33:10.028Z,79.55
2018-04-13T23:35:37.476Z,79.86
2018-04-13T23:38:04.887Z,79.83
2018-04-13T23:40:32.306Z,79.04
2018-04-13T23:42:59.736Z,78.84
2018-04-13T23:45:27.188Z,78.87
2018-04-13T23:47:54.619Z,78.83
2018-04-13T23:50:22.036Z,78.59
2018-04-13T23:52:49.460Z,78.78
2018-04-13T23:55:16.880Z,78.45
2018-04-13T23:57:44.312Z,78.48
